Terminal Aerodrome Forecast
Issued by NWS

Home | Current Version | Previous Version | Text Only | Print | Product List | Glossary On
Versions: 1 2 3 4 5 6 7 8 9 10 11 12 13
045
FTPA31 PHFO 172320
TAFHJR
TAF
PHJR 172320Z 1800/1824 06011G19KT P6SM FEW035 BKN050
     FM180500 07009KT P6SM SCT040
     FM182000 07011G19KT P6SM FEW030 BKN050=

USA.gov is the U.S. government's official web portal to all federal, state and local government web resources and services.